sensor_id;sensor_type;location;lat;lon;timestamp;P1;P2;P0
60816;PMS5003;51921;51.518;-3.188;2023-02-15T00:00:15;73;65;
60816;PMS5003;51921;51.518;-3.188;2023-02-15T00:02:35;68;66;
60816;PMS5003;51921;51.518;-3.188;2023-02-15T00:05:01;72;63;
60816;PMS5003;51921;51.518;-3.188;2023-02-15T00:07:26;78;68;
60816;PMS5003;51921;51.518;-3.188;2023-02-15T00:09:53;70;67;
60816;PMS5003;51921;51.518;-3.188;2023-02-15T00:12:17;76;69;
60816;PMS5003;51921;51.518;-3.188;2023-02-15T00:14:43;80;73;
60816;PMS5003;51921;51.518;-3.188;2023-02-15T00:17:08;77;72;
60816;PMS5003;51921;51.518;-3.188;2023-02-15T00:19:33;82;74;
60816;PMS5003;51921;51.518;-3.188;2023-02-15T00:21:58;74;70;
60816;PMS5003;51921;51.518;-3.188;2023-02-15T00:24:24;72;68;
60816;PMS5003;51921;51.518;-3.188;2023-02-15T00:26:49;71;64;
60816;PMS5003;51921;51.518;-3.188;2023-02-15T00:29:16;69;66;
60816;PMS5003;51921;51.518;-3.188;2023-02-15T00:31:41;76;72;
60816;PMS5003;51921;51.518;-3.188;2023-02-15T00:34:07;70;65;
60816;PMS5003;51921;51.518;-3.188;2023-02-15T00:36:31;77;71;
60816;PMS5003;51921;51.518;-3.188;2023-02-15T00:38:57;80;72;
60816;PMS5003;51921;51.518;-3.188;2023-02-15T00:41:22;85;77;
60816;PMS5003;51921;51.518;-3.188;2023-02-15T00:43:48;83;80;
60816;PMS5003;51921;51.518;-3.188;2023-02-15T00:46:13;81;71;
60816;PMS5003;51921;51.518;-3.188;2023-02-15T00:48:38;70;67;
60816;PMS5003;51921;51.518;-3.188;2023-02-15T00:51:04;76;69;
60816;PMS5003;51921;51.518;-3.188;2023-02-15T00:53:30;72;68;
60816;PMS5003;51921;51.518;-3.188;2023-02-15T00:55:55;76;69;
60816;PMS5003;51921;51.518;-3.188;2023-02-15T00:58:26;75;71;
60816;PMS5003;51921;51.518;-3.188;2023-02-15T01:00:46;76;71;
60816;PMS5003;51921;51.518;-3.188;2023-02-15T01:03:12;79;71;
60816;PMS5003;51921;51.518;-3.188;2023-02-15T01:05:37;68;63;
60816;PMS5003;51921;51.518;-3.188;2023-02-15T01:08:03;73;71;
60816;PMS5003;51921;51.518;-3.188;2023-02-15T01:10:29;76;73;
60816;PMS5003;51921;51.518;-3.188;2023-02-15T01:12:54;71;67;
60816;PMS5003;51921;51.518;-3.188;2023-02-15T01:15:20;80;76;
60816;PMS5003;51921;51.518;-3.188;2023-02-15T01:17:45;82;72;
60816;PMS5003;51921;51.518;-3.188;2023-02-15T01:20:11;81;74;
60816;PMS5003;51921;51.518;-3.188;2023-02-15T01:22:36;78;74;
60816;PMS5003;51921;51.518;-3.188;2023-02-15T01:25:02;77;71;
60816;PMS5003;51921;51.518;-3.188;2023-02-15T01:27:27;75;69;
60816;PMS5003;51921;51.518;-3.188;2023-02-15T01:29:53;76;73;
60816;PMS5003;51921;51.518;-3.188;2023-02-15T01:32:18;82;74;
60816;PMS5003;51921;51.518;-3.188;2023-02-15T01:34:44;78;68;
60816;PMS5003;51921;51.518;-3.188;2023-02-15T01:37:10;86;76;
60816;PMS5003;51921;51.518;-3.188;2023-02-15T01:39:35;77;69;
60816;PMS5003;51921;51.518;-3.188;2023-02-15T01:42:01;77;68;
60816;PMS5003;51921;51.518;-3.188;2023-02-15T01:46:52;73;70;
60816;PMS5003;51921;51.518;-3.188;2023-02-15T01:49:18;79;69;
60816;PMS5003;51921;51.518;-3.188;2023-02-15T01:51:43;72;68;
60816;PMS5003;51921;51.518;-3.188;2023-02-15T01:54:09;82;75;
60816;PMS5003;51921;51.518;-3.188;2023-02-15T01:56:33;87;79;
60816;PMS5003;51921;51.518;-3.188;2023-02-15T01:58:58;74;70;
60816;PMS5003;51921;51.518;-3.188;2023-02-15T02:01:23;78;72;
60816;PMS5003;51921;51.518;-3.188;2023-02-15T02:03:53;82;76;
60816;PMS5003;51921;51.518;-3.188;2023-02-15T02:06:14;75;69;
60816;PMS5003;51921;51.518;-3.188;2023-02-15T02:08:39;73;70;
60816;PMS5003;51921;51.518;-3.188;2023-02-15T02:11:09;83;78;
60816;PMS5003;51921;51.518;-3.188;2023-02-15T02:13:30;79;73;
60816;PMS5003;51921;51.518;-3.188;2023-02-15T02:15:57;84;76;
60816;PMS5003;51921;51.518;-3.188;2023-02-15T02:18:25;83;75;
60816;PMS5003;51921;51.518;-3.188;2023-02-15T02:23:15;74;68;
60816;PMS5003;51921;51.518;-3.188;2023-02-15T02:25:43;76;73;
60816;PMS5003;51921;51.518;-3.188;2023-02-15T02:28:04;68;66;
60816;PMS5003;51921;51.518;-3.188;2023-02-15T02:30:34;74;67;
60816;PMS5003;51921;51.518;-3.188;2023-02-15T02:35:20;74;69;
60816;PMS5003;51921;51.518;-3.188;2023-02-15T02:37:45;75;69;
60816;PMS5003;51921;51.518;-3.188;2023-02-15T02:40:10;70;66;
60816;PMS5003;51921;51.518;-3.188;2023-02-15T02:42:36;80;72;
60816;PMS5003;51921;51.518;-3.188;2023-02-15T02:45:02;75;71;
60816;PMS5003;51921;51.518;-3.188;2023-02-15T02:47:26;79;67;
60816;PMS5003;51921;51.518;-3.188;2023-02-15T02:49:52;66;61;
60816;PMS5003;51921;51.518;-3.188;2023-02-15T02:54:42;82;76;
60816;PMS5003;51921;51.518;-3.188;2023-02-15T02:57:07;74;72;
60816;PMS5003;51921;51.518;-3.188;2023-02-15T02:59:33;71;61;
60816;PMS5003;51921;51.518;-3.188;2023-02-15T03:01:59;77;73;
60816;PMS5003;51921;51.518;-3.188;2023-02-15T03:04:24;87;72;
60816;PMS5003;51921;51.518;-3.188;2023-02-15T03:06:50;82;77;
60816;PMS5003;51921;51.518;-3.188;2023-02-15T03:09:15;88;79;
60816;PMS5003;51921;51.518;-3.188;2023-02-15T03:11:41;81;74;
60816;PMS5003;51921;51.518;-3.188;2023-02-15T03:14:05;78;74;
60816;PMS5003;51921;51.518;-3.188;2023-02-15T03:16:30;78;74;
60816;PMS5003;51921;51.518;-3.188;2023-02-15T03:18:58;81;78;
60816;PMS5003;51921;51.518;-3.188;2023-02-15T03:21:23;88;81;
60816;PMS5003;51921;51.518;-3.188;2023-02-15T03:23:48;84;79;
60816;PMS5003;51921;51.518;-3.188;2023-02-15T03:26:15;79;75;
60816;PMS5003;51921;51.518;-3.188;2023-02-15T03:28:42;86;79;
60816;PMS5003;51921;51.518;-3.188;2023-02-15T03:31:04;77;69;
60816;PMS5003;51921;51.518;-3.188;2023-02-15T03:33:29;83;70;
60816;PMS5003;51921;51.518;-3.188;2023-02-15T03:35:57;84;71;
60816;PMS5003;51921;51.518;-3.188;2023-02-15T03:38:21;81;72;
60816;PMS5003;51921;51.518;-3.188;2023-02-15T03:40:46;82;77;
60816;PMS5003;51921;51.518;-3.188;2023-02-15T03:43:12;86;75;
60816;PMS5003;51921;51.518;-3.188;2023-02-15T03:45:37;84;77;
60816;PMS5003;51921;51.518;-3.188;2023-02-15T03:48:03;82;76;
60816;PMS5003;51921;51.518;-3.188;2023-02-15T03:50:29;77;71;
60816;PMS5003;51921;51.518;-3.188;2023-02-15T03:52:54;75;71;
60816;PMS5003;51921;51.518;-3.188;2023-02-15T03:55:19;79;72;
60816;PMS5003;51921;51.518;-3.188;2023-02-15T03:57:44;72;69;
60816;PMS5003;51921;51.518;-3.188;2023-02-15T04:00:11;76;71;
60816;PMS5003;51921;51.518;-3.188;2023-02-15T04:02:36;82;77;
60816;PMS5003;51921;51.518;-3.188;2023-02-15T04:05:00;80;75;
60816;PMS5003;51921;51.518;-3.188;2023-02-15T04:07:25;80;70;
60816;PMS5003;51921;51.518;-3.188;2023-02-15T04:09:51;73;70;
60816;PMS5003;51921;51.518;-3.188;2023-02-15T04:12:16;89;83;
60816;PMS5003;51921;51.518;-3.188;2023-02-15T04:14:42;87;78;
60816;PMS5003;51921;51.518;-3.188;2023-02-15T04:17:07;97;85;
60816;PMS5003;51921;51.518;-3.188;2023-02-15T04:19:33;83;79;
60816;PMS5003;51921;51.518;-3.188;2023-02-15T04:21:58;90;79;
60816;PMS5003;51921;51.518;-3.188;2023-02-15T04:24:24;87;76;
60816;PMS5003;51921;51.518;-3.188;2023-02-15T04:26:49;74;67;
60816;PMS5003;51921;51.518;-3.188;2023-02-15T04:29:14;84;74;
60816;PMS5003;51921;51.518;-3.188;2023-02-15T04:31:40;79;71;
60816;PMS5003;51921;51.518;-3.188;2023-02-15T04:34:05;88;83;
60816;PMS5003;51921;51.518;-3.188;2023-02-15T04:36:31;88;81;
60816;PMS5003;51921;51.518;-3.188;2023-02-15T04:38:56;85;75;
60816;PMS5003;51921;51.518;-3.188;2023-02-15T04:41:22;77;67;
60816;PMS5003;51921;51.518;-3.188;2023-02-15T04:43:48;74;70;
60816;PMS5003;51921;51.518;-3.188;2023-02-15T04:46:14;79;74;
60816;PMS5003;51921;51.518;-3.188;2023-02-15T04:48:39;80;73;
60816;PMS5003;51921;51.518;-3.188;2023-02-15T04:51:05;87;76;
60816;PMS5003;51921;51.518;-3.188;2023-02-15T04:53:29;82;74;
60816;PMS5003;51921;51.518;-3.188;2023-02-15T04:55:54;89;78;
60816;PMS5003;51921;51.518;-3.188;2023-02-15T04:58:20;82;75;
60816;PMS5003;51921;51.518;-3.188;2023-02-15T05:00:45;81;70;
60816;PMS5003;51921;51.518;-3.188;2023-02-15T05:03:10;76;73;
60816;PMS5003;51921;51.518;-3.188;2023-02-15T05:05:36;86;79;
60816;PMS5003;51921;51.518;-3.188;2023-02-15T05:08:01;87;80;
60816;PMS5003;51921;51.518;-3.188;2023-02-15T05:10:27;81;75;
60816;PMS5003;51921;51.518;-3.188;2023-02-15T05:12:52;78;75;
60816;PMS5003;51921;51.518;-3.188;2023-02-15T05:15:17;78;76;
60816;PMS5003;51921;51.518;-3.188;2023-02-15T05:17:43;91;86;
60816;PMS5003;51921;51.518;-3.188;2023-02-15T05:20:09;89;79;
60816;PMS5003;51921;51.518;-3.188;2023-02-15T05:22:34;79;75;
60816;PMS5003;51921;51.518;-3.188;2023-02-15T05:24:59;84;78;
60816;PMS5003;51921;51.518;-3.188;2023-02-15T05:27:25;90;79;
60816;PMS5003;51921;51.518;-3.188;2023-02-15T05:29:50;83;78;
60816;PMS5003;51921;51.518;-3.188;2023-02-15T05:32:15;83;78;
60816;PMS5003;51921;51.518;-3.188;2023-02-15T05:34:41;84;82;
60816;PMS5003;51921;51.518;-3.188;2023-02-15T05:37:06;92;85;
60816;PMS5003;51921;51.518;-3.188;2023-02-15T05:39:32;84;81;
60816;PMS5003;51921;51.518;-3.188;2023-02-15T05:41:58;85;79;
60816;PMS5003;51921;51.518;-3.188;2023-02-15T05:44:23;90;80;
60816;PMS5003;51921;51.518;-3.188;2023-02-15T05:46:48;79;72;
60816;PMS5003;51921;51.518;-3.188;2023-02-15T05:49:14;87;80;
60816;PMS5003;51921;51.518;-3.188;2023-02-15T05:51:39;102;89;
60816;PMS5003;51921;51.518;-3.188;2023-02-15T05:54:05;95;87;
60816;PMS5003;51921;51.518;-3.188;2023-02-15T05:56:30;86;80;
60816;PMS5003;51921;51.518;-3.188;2023-02-15T05:58:56;98;88;
60816;PMS5003;51921;51.518;-3.188;2023-02-15T06:01:21;93;80;
60816;PMS5003;51921;51.518;-3.188;2023-02-15T06:03:46;89;83;
60816;PMS5003;51921;51.518;-3.188;2023-02-15T06:06:11;96;88;
60816;PMS5003;51921;51.518;-3.188;2023-02-15T06:08:37;90;84;
60816;PMS5003;51921;51.518;-3.188;2023-02-15T06:11:02;98;90;
60816;PMS5003;51921;51.518;-3.188;2023-02-15T06:13:28;96;87;
60816;PMS5003;51921;51.518;-3.188;2023-02-15T06:15:53;92;81;
60816;PMS5003;51921;51.518;-3.188;2023-02-15T06:18:19;92;85;
60816;PMS5003;51921;51.518;-3.188;2023-02-15T06:20:45;97;84;
60816;PMS5003;51921;51.518;-3.188;2023-02-15T06:23:10;100;90;
60816;PMS5003;51921;51.518;-3.188;2023-02-15T06:25:35;90;84;
60816;PMS5003;51921;51.518;-3.188;2023-02-15T06:28:00;91;83;
60816;PMS5003;51921;51.518;-3.188;2023-02-15T06:30:26;104;92;
60816;PMS5003;51921;51.518;-3.188;2023-02-15T06:32:51;99;89;
60816;PMS5003;51921;51.518;-3.188;2023-02-15T06:35:17;86;82;
60816;PMS5003;51921;51.518;-3.188;2023-02-15T06:37:44;96;88;
60816;PMS5003;51921;51.518;-3.188;2023-02-15T06:40:08;89;85;
60816;PMS5003;51921;51.518;-3.188;2023-02-15T06:42:34;87;79;
60816;PMS5003;51921;51.518;-3.188;2023-02-15T06:44:59;102;85;
60816;PMS5003;51921;51.518;-3.188;2023-02-15T06:47:25;95;86;
60816;PMS5003;51921;51.518;-3.188;2023-02-15T06:49:50;94;85;
60816;PMS5003;51921;51.518;-3.188;2023-02-15T06:52:16;104;89;
60816;PMS5003;51921;51.518;-3.188;2023-02-15T06:54:42;89;81;
60816;PMS5003;51921;51.518;-3.188;2023-02-15T06:57:08;94;88;
60816;PMS5003;51921;51.518;-3.188;2023-02-15T06:59:33;96;89;
60816;PMS5003;51921;51.518;-3.188;2023-02-15T07:01:59;106;99;
60816;PMS5003;51921;51.518;-3.188;2023-02-15T07:04:24;109;96;
60816;PMS5003;51921;51.518;-3.188;2023-02-15T07:06:50;103;95;
60816;PMS5003;51921;51.518;-3.188;2023-02-15T07:09:15;108;97;
60816;PMS5003;51921;51.518;-3.188;2023-02-15T07:11:40;98;91;
60816;PMS5003;51921;51.518;-3.188;2023-02-15T07:14:06;103;93;
60816;PMS5003;51921;51.518;-3.188;2023-02-15T07:16:31;94;87;
60816;PMS5003;51921;51.518;-3.188;2023-02-15T07:18:57;109;94;
60816;PMS5003;51921;51.518;-3.188;2023-02-15T07:21:22;111;92;
60816;PMS5003;51921;51.518;-3.188;2023-02-15T07:23:47;98;86;
60816;PMS5003;51921;51.518;-3.188;2023-02-15T07:26:13;102;95;
60816;PMS5003;51921;51.518;-3.188;2023-02-15T07:28:43;100;93;
60816;PMS5003;51921;51.518;-3.188;2023-02-15T07:31:04;111;100;
60816;PMS5003;51921;51.518;-3.188;2023-02-15T07:38:20;110;97;
60816;PMS5003;51921;51.518;-3.188;2023-02-15T07:40:46;109;101;
60816;PMS5003;51921;51.518;-3.188;2023-02-15T07:43:11;118;104;
60816;PMS5003;51921;51.518;-3.188;2023-02-15T07:45:36;110;101;
60816;PMS5003;51921;51.518;-3.188;2023-02-15T07:48:02;105;95;
60816;PMS5003;51921;51.518;-3.188;2023-02-15T07:50:27;110;99;
60816;PMS5003;51921;51.518;-3.188;2023-02-15T07:52:52;102;92;
60816;PMS5003;51921;51.518;-3.188;2023-02-15T07:55:18;111;99;
60816;PMS5003;51921;51.518;-3.188;2023-02-15T07:57:43;108;99;
60816;PMS5003;51921;51.518;-3.188;2023-02-15T08:00:09;95;89;
60816;PMS5003;51921;51.518;-3.188;2023-02-15T08:02:34;107;97;
60816;PMS5003;51921;51.518;-3.188;2023-02-15T08:04:59;110;89;
60816;PMS5003;51921;51.518;-3.188;2023-02-15T08:07:26;107;97;
60816;PMS5003;51921;51.518;-3.188;2023-02-15T08:09:50;114;104;
60816;PMS5003;51921;51.518;-3.188;2023-02-15T08:12:16;114;105;
60816;PMS5003;51921;51.518;-3.188;2023-02-15T08:14:42;130;119;
60816;PMS5003;51921;51.518;-3.188;2023-02-15T08:17:07;107;103;
60816;PMS5003;51921;51.518;-3.188;2023-02-15T08:19:32;111;105;
60816;PMS5003;51921;51.518;-3.188;2023-02-15T08:21:58;113;101;
60816;PMS5003;51921;51.518;-3.188;2023-02-15T08:24:23;115;104;
60816;PMS5003;51921;51.518;-3.188;2023-02-15T08:26:48;108;103;
60816;PMS5003;51921;51.518;-3.188;2023-02-15T08:29:14;115;101;
60816;PMS5003;51921;51.518;-3.188;2023-02-15T08:34:05;101;91;
60816;PMS5003;51921;51.518;-3.188;2023-02-15T08:36:30;108;99;
60816;PMS5003;51921;51.518;-3.188;2023-02-15T08:38:56;99;92;
60816;PMS5003;51921;51.518;-3.188;2023-02-15T08:41:21;115;98;
60816;PMS5003;51921;51.518;-3.188;2023-02-15T08:43:46;116;98;
60816;PMS5003;51921;51.518;-3.188;2023-02-15T08:46:11;101;98;
60816;PMS5003;51921;51.518;-3.188;2023-02-15T08:48:36;105;101;
60816;PMS5003;51921;51.518;-3.188;2023-02-15T08:51:07;100;94;
60816;PMS5003;51921;51.518;-3.188;2023-02-15T08:53:28;108;98;
60816;PMS5003;51921;51.518;-3.188;2023-02-15T08:55:55;109;103;
60816;PMS5003;51921;51.518;-3.188;2023-02-15T08:58:20;109;101;
60816;PMS5003;51921;51.518;-3.188;2023-02-15T09:00:45;110;101;
60816;PMS5003;51921;51.518;-3.188;2023-02-15T09:03:11;105;98;
60816;PMS5003;51921;51.518;-3.188;2023-02-15T09:05:36;105;97;
60816;PMS5003;51921;51.518;-3.188;2023-02-15T09:08:02;98;95;
60816;PMS5003;51921;51.518;-3.188;2023-02-15T09:10:27;90;83;
60816;PMS5003;51921;51.518;-3.188;2023-02-15T09:12:53;90;86;
60816;PMS5003;51921;51.518;-3.188;2023-02-15T09:15:18;101;90;
60816;PMS5003;51921;51.518;-3.188;2023-02-15T09:17:43;78;75;
60816;PMS5003;51921;51.518;-3.188;2023-02-15T09:20:08;86;75;
60816;PMS5003;51921;51.518;-3.188;2023-02-15T09:22:33;95;88;
60816;PMS5003;51921;51.518;-3.188;2023-02-15T09:24:59;91;86;
60816;PMS5003;51921;51.518;-3.188;2023-02-15T09:27:25;91;83;
60816;PMS5003;51921;51.518;-3.188;2023-02-15T09:29:50;92;85;
60816;PMS5003;51921;51.518;-3.188;2023-02-15T09:32:16;79;75;
60816;PMS5003;51921;51.518;-3.188;2023-02-15T09:34:42;77;73;
60816;PMS5003;51921;51.518;-3.188;2023-02-15T09:37:07;80;70;
60816;PMS5003;51921;51.518;-3.188;2023-02-15T09:39:32;68;64;
60816;PMS5003;51921;51.518;-3.188;2023-02-15T09:42:06;68;64;
60816;PMS5003;51921;51.518;-3.188;2023-02-15T09:44:26;65;61;
60816;PMS5003;51921;51.518;-3.188;2023-02-15T09:46:54;61;56;
60816;PMS5003;51921;51.518;-3.188;2023-02-15T09:51:45;64;60;
60816;PMS5003;51921;51.518;-3.188;2023-02-15T09:54:09;65;58;
60816;PMS5003;51921;51.518;-3.188;2023-02-15T09:56:31;61;53;
60816;PMS5003;51921;51.518;-3.188;2023-02-15T09:58:57;53;51;
60816;PMS5003;51921;51.518;-3.188;2023-02-15T10:01:23;59;56;
60816;PMS5003;51921;51.518;-3.188;2023-02-15T10:03:50;52;51;
60816;PMS5003;51921;51.518;-3.188;2023-02-15T10:06:21;58;52;
60816;PMS5003;51921;51.518;-3.188;2023-02-15T10:08:47;55;53;
60816;PMS5003;51921;51.518;-3.188;2023-02-15T10:11:06;55;51;
60816;PMS5003;51921;51.518;-3.188;2023-02-15T10:13:30;57;53;
60816;PMS5003;51921;51.518;-3.188;2023-02-15T10:15:59;57;54;
60816;PMS5003;51921;51.518;-3.188;2023-02-15T10:18:24;59;54;
60816;PMS5003;51921;51.518;-3.188;2023-02-15T10:20:52;53;50;
60816;PMS5003;51921;51.518;-3.188;2023-02-15T10:23:19;47;45;
60816;PMS5003;51921;51.518;-3.188;2023-02-15T10:25:39;50;48;
60816;PMS5003;51921;51.518;-3.188;2023-02-15T10:28:03;52;48;
60816;PMS5003;51921;51.518;-3.188;2023-02-15T10:30:29;57;50;
60816;PMS5003;51921;51.518;-3.188;2023-02-15T10:32:56;51;48;
60816;PMS5003;51921;51.518;-3.188;2023-02-15T10:35:20;52;42;
60816;PMS5003;51921;51.518;-3.188;2023-02-15T10:37:50;47;46;
60816;PMS5003;51921;51.518;-3.188;2023-02-15T10:40:16;44;42;
60816;PMS5003;51921;51.518;-3.188;2023-02-15T10:42:38;51;48;
60816;PMS5003;51921;51.518;-3.188;2023-02-15T10:45:06;45;42;
60816;PMS5003;51921;51.518;-3.188;2023-02-15T10:47:30;47;43;
60816;PMS5003;51921;51.518;-3.188;2023-02-15T10:50:06;53;46;
60816;PMS5003;51921;51.518;-3.188;2023-02-15T10:52:20;40;38;
60816;PMS5003;51921;51.518;-3.188;2023-02-15T10:54:44;42;40;
60816;PMS5003;51921;51.518;-3.188;2023-02-15T10:57:10;49;44;
60816;PMS5003;51921;51.518;-3.188;2023-02-15T10:59:38;45;43;
60816;PMS5003;51921;51.518;-3.188;2023-02-15T11:01:59;38;36;
60816;PMS5003;51921;51.518;-3.188;2023-02-15T11:04:33;43;42;
60816;PMS5003;51921;51.518;-3.188;2023-02-15T11:06:50;41;40;
60816;PMS5003;51921;51.518;-3.188;2023-02-15T11:09:14;45;43;
60816;PMS5003;51921;51.518;-3.188;2023-02-15T11:11:40;41;39;
60816;PMS5003;51921;51.518;-3.188;2023-02-15T11:14:05;38;37;
60816;PMS5003;51921;51.518;-3.188;2023-02-15T11:16:31;36;36;
60816;PMS5003;51921;51.518;-3.188;2023-02-15T11:18:56;39;36;
60816;PMS5003;51921;51.518;-3.188;2023-02-15T11:21:22;39;36;
60816;PMS5003;51921;51.518;-3.188;2023-02-15T11:23:47;42;40;
60816;PMS5003;51921;51.518;-3.188;2023-02-15T11:26:21;43;42;
60816;PMS5003;51921;51.518;-3.188;2023-02-15T11:28:39;39;36;
60816;PMS5003;51921;51.518;-3.188;2023-02-15T11:33:30;37;34;
60816;PMS5003;51921;51.518;-3.188;2023-02-15T11:35:57;37;35;
60816;PMS5003;51921;51.518;-3.188;2023-02-15T11:38:21;39;35;
60816;PMS5003;51921;51.518;-3.188;2023-02-15T11:40:47;39;37;
60816;PMS5003;51921;51.518;-3.188;2023-02-15T11:43:13;37;35;
60816;PMS5003;51921;51.518;-3.188;2023-02-15T11:45:38;33;31;
60816;PMS5003;51921;51.518;-3.188;2023-02-15T11:48:08;39;37;
60816;PMS5003;51921;51.518;-3.188;2023-02-15T11:50:29;38;35;
60816;PMS5003;51921;51.518;-3.188;2023-02-15T11:53:01;35;35;
60816;PMS5003;51921;51.518;-3.188;2023-02-15T11:55:20;38;34;
60816;PMS5003;51921;51.518;-3.188;2023-02-15T11:57:46;31;30;
60816;PMS5003;51921;51.518;-3.188;2023-02-15T12:00:12;29;28;
60816;PMS5003;51921;51.518;-3.188;2023-02-15T12:02:37;30;28;
60816;PMS5003;51921;51.518;-3.188;2023-02-15T12:05:03;30;29;
60816;PMS5003;51921;51.518;-3.188;2023-02-15T12:07:28;27;27;
60816;PMS5003;51921;51.518;-3.188;2023-02-15T12:09:54;31;31;
60816;PMS5003;51921;51.518;-3.188;2023-02-15T12:12:20;29;28;
60816;PMS5003;51921;51.518;-3.188;2023-02-15T12:14:46;30;28;
60816;PMS5003;51921;51.518;-3.188;2023-02-15T12:17:12;32;30;
60816;PMS5003;51921;51.518;-3.188;2023-02-15T12:19:36;32;30;
60816;PMS5003;51921;51.518;-3.188;2023-02-15T12:22:01;32;30;
60816;PMS5003;51921;51.518;-3.188;2023-02-15T12:24:27;36;32;
60816;PMS5003;51921;51.518;-3.188;2023-02-15T12:26:58;31;29;
60816;PMS5003;51921;51.518;-3.188;2023-02-15T12:29:17;35;33;
60816;PMS5003;51921;51.518;-3.188;2023-02-15T12:31:44;34;31;
60816;PMS5003;51921;51.518;-3.188;2023-02-15T12:34:09;35;34;
60816;PMS5003;51921;51.518;-3.188;2023-02-15T12:36:39;34;30;
60816;PMS5003;51921;51.518;-3.188;2023-02-15T12:39:03;34;32;
60816;PMS5003;51921;51.518;-3.188;2023-02-15T12:41:25;33;31;
60816;PMS5003;51921;51.518;-3.188;2023-02-15T12:46:21;35;32;
60816;PMS5003;51921;51.518;-3.188;2023-02-15T12:48:41;34;33;
60816;PMS5003;51921;51.518;-3.188;2023-02-15T12:51:08;29;28;
60816;PMS5003;51921;51.518;-3.188;2023-02-15T12:53:33;32;31;
60816;PMS5003;51921;51.518;-3.188;2023-02-15T12:55:58;31;30;
60816;PMS5003;51921;51.518;-3.188;2023-02-15T12:58:23;31;31;
60816;PMS5003;51921;51.518;-3.188;2023-02-15T13:00:48;31;30;
60816;PMS5003;51921;51.518;-3.188;2023-02-15T13:03:18;34;33;
60816;PMS5003;51921;51.518;-3.188;2023-02-15T13:08:09;32;31;
60816;PMS5003;51921;51.518;-3.188;2023-02-15T13:10:33;34;34;
60816;PMS5003;51921;51.518;-3.188;2023-02-15T13:12:56;33;31;
60816;PMS5003;51921;51.518;-3.188;2023-02-15T13:15:24;29;29;
60816;PMS5003;51921;51.518;-3.188;2023-02-15T13:17:47;33;32;
60816;PMS5003;51921;51.518;-3.188;2023-02-15T13:20:16;40;39;
60816;PMS5003;51921;51.518;-3.188;2023-02-15T13:22:38;41;40;
60816;PMS5003;51921;51.518;-3.188;2023-02-15T13:25:04;40;39;
60816;PMS5003;51921;51.518;-3.188;2023-02-15T13:27:29;45;43;
60816;PMS5003;51921;51.518;-3.188;2023-02-15T13:29:55;46;44;
60816;PMS5003;51921;51.518;-3.188;2023-02-15T13:32:24;50;46;
60816;PMS5003;51921;51.518;-3.188;2023-02-15T13:34:44;39;37;
60816;PMS5003;51921;51.518;-3.188;2023-02-15T13:37:13;36;36;
60816;PMS5003;51921;51.518;-3.188;2023-02-15T13:39:37;44;38;
60816;PMS5003;51921;51.518;-3.188;2023-02-15T13:42:03;31;30;
60816;PMS5003;51921;51.518;-3.188;2023-02-15T13:44:32;33;32;
60816;PMS5003;51921;51.518;-3.188;2023-02-15T13:46:56;41;35;
60816;PMS5003;51921;51.518;-3.188;2023-02-15T13:49:20;33;33;
60816;PMS5003;51921;51.518;-3.188;2023-02-15T13:51:45;35;33;
60816;PMS5003;51921;51.518;-3.188;2023-02-15T13:56:37;29;28;
60816;PMS5003;51921;51.518;-3.188;2023-02-15T13:59:10;29;28;
60816;PMS5003;51921;51.518;-3.188;2023-02-15T14:01:26;38;34;
60816;PMS5003;51921;51.518;-3.188;2023-02-15T14:06:19;27;25;
60816;PMS5003;51921;51.518;-3.188;2023-02-15T14:08:45;32;31;
60816;PMS5003;51921;51.518;-3.188;2023-02-15T14:11:06;31;30;
60816;PMS5003;51921;51.518;-3.188;2023-02-15T14:13:38;26;25;
60816;PMS5003;51921;51.518;-3.188;2023-02-15T14:15:58;24;22;
60816;PMS5003;51921;51.518;-3.188;2023-02-15T14:18:24;23;22;
60816;PMS5003;51921;51.518;-3.188;2023-02-15T14:20:51;22;20;
60816;PMS5003;51921;51.518;-3.188;2023-02-15T14:23:16;17;16;
60816;PMS5003;51921;51.518;-3.188;2023-02-15T14:25:41;15;14;
60816;PMS5003;51921;51.518;-3.188;2023-02-15T14:28:07;16;15;
60816;PMS5003;51921;51.518;-3.188;2023-02-15T14:30:31;15;15;
60816;PMS5003;51921;51.518;-3.188;2023-02-15T14:32:57;15;15;
60816;PMS5003;51921;51.518;-3.188;2023-02-15T14:35:22;19;18;
60816;PMS5003;51921;51.518;-3.188;2023-02-15T14:37:49;16;16;
60816;PMS5003;51921;51.518;-3.188;2023-02-15T14:40:16;21;19;
60816;PMS5003;51921;51.518;-3.188;2023-02-15T14:42:39;16;16;
60816;PMS5003;51921;51.518;-3.188;2023-02-15T14:45:05;18;16;
60816;PMS5003;51921;51.518;-3.188;2023-02-15T14:47:31;13;13;
60816;PMS5003;51921;51.518;-3.188;2023-02-15T14:52:19;18;17;
60816;PMS5003;51921;51.518;-3.188;2023-02-15T14:59:37;21;19;
60816;PMS5003;51921;51.518;-3.188;2023-02-15T15:02:04;22;22;
60816;PMS5003;51921;51.518;-3.188;2023-02-15T15:04:29;23;21;
60816;PMS5003;51921;51.518;-3.188;2023-02-15T15:06:57;21;19;
60816;PMS5003;51921;51.518;-3.188;2023-02-15T15:09:19;24;21;
60816;PMS5003;51921;51.518;-3.188;2023-02-15T15:11:45;22;21;
60816;PMS5003;51921;51.518;-3.188;2023-02-15T15:14:10;19;18;
60816;PMS5003;51921;51.518;-3.188;2023-02-15T15:16:47;18;18;
60816;PMS5003;51921;51.518;-3.188;2023-02-15T15:19:01;18;17;
60816;PMS5003;51921;51.518;-3.188;2023-02-15T15:23:51;15;15;
60816;PMS5003;51921;51.518;-3.188;2023-02-15T15:26:21;13;12;
60816;PMS5003;51921;51.518;-3.188;2023-02-15T15:31:08;11;11;
60816;PMS5003;51921;51.518;-3.188;2023-02-15T15:33:42;12;11;
60816;PMS5003;51921;51.518;-3.188;2023-02-15T15:36:05;10;10;
60816;PMS5003;51921;51.518;-3.188;2023-02-15T15:38:28;11;9;
60816;PMS5003;51921;51.518;-3.188;2023-02-15T15:45:45;9;9;
60816;PMS5003;51921;51.518;-3.188;2023-02-15T15:50:32;13;13;
60816;PMS5003;51921;51.518;-3.188;2023-02-15T15:52:58;14;14;
60816;PMS5003;51921;51.518;-3.188;2023-02-15T15:55:23;12;11;
60816;PMS5003;51921;51.518;-3.188;2023-02-15T15:57:49;13;13;
60816;PMS5003;51921;51.518;-3.188;2023-02-15T16:05:06;17;14;
60816;PMS5003;51921;51.518;-3.188;2023-02-15T16:07:30;16;14;
60816;PMS5003;51921;51.518;-3.188;2023-02-15T16:09:57;16;15;
60816;PMS5003;51921;51.518;-3.188;2023-02-15T16:14:47;14;13;
60816;PMS5003;51921;51.518;-3.188;2023-02-15T16:17:13;14;12;
60816;PMS5003;51921;51.518;-3.188;2023-02-15T16:19:38;14;13;
60816;PMS5003;51921;51.518;-3.188;2023-02-15T16:22:03;13;13;
60816;PMS5003;51921;51.518;-3.188;2023-02-15T16:24:37;9;9;
60816;PMS5003;51921;51.518;-3.188;2023-02-15T16:26:58;8;8;
60816;PMS5003;51921;51.518;-3.188;2023-02-15T16:34:15;8;6;
60816;PMS5003;51921;51.518;-3.188;2023-02-15T16:36:36;7;7;
60816;PMS5003;51921;51.518;-3.188;2023-02-15T16:39:08;8;8;
60816;PMS5003;51921;51.518;-3.188;2023-02-15T16:41:28;5;5;
60816;PMS5003;51921;51.518;-3.188;2023-02-15T16:43:53;6;6;
60816;PMS5003;51921;51.518;-3.188;2023-02-15T16:46:20;7;5;
60816;PMS5003;51921;51.518;-3.188;2023-02-15T16:48:45;4;3;